Terminal Aerodrome Forecast
Issued by NWS Greer, SC

Home | Current Version | Previous Version | Text Only | Print | Product List | Glossary On
Versions: 1 2 3 4 5 6 7 8 9 10 11 12 13 14 15 16 17 18 19 20 21
000
FTUS42 KGSP 281732
TAFCLT
TAF
KCLT 281732Z 2818/2918 10005KT P6SM FEW050 BKN250
     FM290600 06004KT P6SM VCSH BKN030 OVC070
     FM290900 02004KT P6SM -SHRA OVC015
     FM291300 36010KT 5SM -SHRA BR OVC015 PROB30 2915/2918 4SM -TSRA
      BR OVC007CB=

USA.gov is the U.S. government's official web portal to all federal, state and local government web resources and services.